ETH978 HAAB-HUEN
Flight info
| Callsign | ETH978 |
|---|---|
| Flight time | 1h 52m |
| Altitude | 32000 |
| Route | ETGOM1A ETGOM UL432 IMVIP IMVIP2C |
| Aircraft | B738/M-SDE2E3FGHIRWXY/LB1 |
Departure
| Time | 2026-05-09 08:21 |
|---|---|
| Airport | Addis Ababa Bole International Airport (HAAB) |
Arrival
| Time | 2026-05-09 10:14 |
|---|---|
| Airport | Entebbe International Airport (HUEN) |
| Time | Latitude | Longitude | Altitude | Speed | Heading |
|---|---|---|---|---|---|
| 2026-05-09 07:59 | 8.98277 | 38.79780 | 7623 ft | 0 kts | 345° |
| 2026-05-09 08:09 | 8.98276 | 38.79780 | 7623 ft | 1 kts | 345° |
| 2026-05-09 08:10 | 8.98252 | 38.79786 | 7623 ft | 4 kts | 345° |
| 2026-05-09 08:10 | 8.98227 | 38.79796 | 7625 ft | 4 kts | 319° |
| 2026-05-09 08:10 | 8.98214 | 38.79816 | 7625 ft | 4 kts | 275° |
| 2026-05-09 08:10 | 8.98215 | 38.79831 | 7623 ft | 1 kts | 254° |
| 2026-05-09 08:11 | 8.98215 | 38.79833 | 7623 ft | 0 kts | 254° |
| 2026-05-09 08:13 | 8.98214 | 38.79831 | 7623 ft | 1 kts | 254° |
| 2026-05-09 08:14 | 8.98210 | 38.79816 | 7625 ft | 4 kts | 254° |
| 2026-05-09 08:14 | 8.98199 | 38.79778 | 7625 ft | 8 kts | 254° |
| 2026-05-09 08:14 | 8.98181 | 38.79714 | 7623 ft | 11 kts | 253° |
| 2026-05-09 08:14 | 8.98156 | 38.79633 | 7623 ft | 13 kts | 252° |
| 2026-05-09 08:15 | 8.98129 | 38.79545 | 7624 ft | 13 kts | 254° |
| 2026-05-09 08:15 | 8.98104 | 38.79457 | 7622 ft | 13 kts | 254° |
| 2026-05-09 08:15 | 8.98080 | 38.79371 | 7621 ft | 13 kts | 254° |
| 2026-05-09 08:15 | 8.98056 | 38.79287 | 7621 ft | 12 kts | 253° |
| 2026-05-09 08:16 | 8.98033 | 38.79201 | 7621 ft | 13 kts | 260° |
| 2026-05-09 08:16 | 8.98011 | 38.79107 | 7621 ft | 14 kts | 254° |
| 2026-05-09 08:16 | 8.97983 | 38.79013 | 7620 ft | 14 kts | 253° |
| 2026-05-09 08:16 | 8.97957 | 38.78925 | 7620 ft | 13 kts | 253° |
| 2026-05-09 08:17 | 8.97931 | 38.78838 | 7620 ft | 13 kts | 253° |
| 2026-05-09 08:17 | 8.97901 | 38.78749 | 7621 ft | 14 kts | 234° |
| 2026-05-09 08:17 | 8.97811 | 38.78731 | 7619 ft | 13 kts | 210° |
| 2026-05-09 08:17 | 8.97768 | 38.78648 | 7619 ft | 14 kts | 253° |
| 2026-05-09 08:18 | 8.97751 | 38.78550 | 7619 ft | 14 kts | 252° |
| 2026-05-09 08:18 | 8.97706 | 38.78461 | 7618 ft | 14 kts | 242° |
| 2026-05-09 08:18 | 8.97658 | 38.78375 | 7617 ft | 15 kts | 235° |
| 2026-05-09 08:18 | 8.97596 | 38.78291 | 7617 ft | 15 kts | 233° |
| 2026-05-09 08:19 | 8.97510 | 38.78243 | 7615 ft | 15 kts | 179° |
| 2026-05-09 08:19 | 8.97402 | 38.78266 | 7614 ft | 16 kts | 166° |
| 2026-05-09 08:19 | 8.97306 | 38.78318 | 7624 ft | 15 kts | 137° |
| 2026-05-09 08:19 | 8.97251 | 38.78404 | 7630 ft | 15 kts | 89° |
| 2026-05-09 08:20 | 8.97262 | 38.78458 | 7633 ft | 0 kts | 73° |
| 2026-05-09 08:20 | 8.97295 | 38.78569 | 7631 ft | 45 kts | 73° |
| 2026-05-09 08:20 | 8.97441 | 38.79070 | 7627 ft | 102 kts | 73° |
| 2026-05-09 08:20 | 8.97696 | 38.79926 | 7624 ft | 151 kts | 73° |
| 2026-05-09 08:21 | 8.97985 | 38.81063 | 7703 ft | 184 kts | 77° |
| 2026-05-09 08:21 | 8.98328 | 38.82394 | 7899 ft | 203 kts | 76° |
| 2026-05-09 08:21 | 8.98702 | 38.83743 | 8412 ft | 207 kts | 75° |
| 2026-05-09 08:21 | 8.99109 | 38.85152 | 8903 ft | 210 kts | 75° |
| 2026-05-09 08:22 | 8.99520 | 38.86582 | 9402 ft | 213 kts | 75° |
| 2026-05-09 08:22 | 8.99929 | 38.88023 | 9886 ft | 212 kts | 76° |
| 2026-05-09 08:22 | 9.00346 | 38.89510 | 9977 ft | 232 kts | 76° |
| 2026-05-09 08:22 | 9.00806 | 38.91156 | 9986 ft | 256 kts | 75° |
| 2026-05-09 08:23 | 9.01311 | 38.92957 | 9969 ft | 275 kts | 75° |
| 2026-05-09 08:23 | 9.01856 | 38.94905 | 9920 ft | 302 kts | 76° |
| 2026-05-09 08:23 | 9.02252 | 38.96323 | 9941 ft | 317 kts | 75° |
| 2026-05-09 08:23 | 9.02544 | 38.98601 | 9888 ft | 339 kts | 97° |
| 2026-05-09 08:24 | 9.01746 | 39.00842 | 10197 ft | 349 kts | 121° |
| 2026-05-09 08:24 | 9.00107 | 39.02715 | 10647 ft | 358 kts | 140° |
| 2026-05-09 08:24 | 8.97943 | 39.03939 | 11089 ft | 367 kts | 159° |
| 2026-05-09 08:24 | 8.95410 | 39.04359 | 11534 ft | 376 kts | 179° |
| 2026-05-09 08:25 | 8.92818 | 39.03938 | 12024 ft | 384 kts | 195° |
| 2026-05-09 08:25 | 8.90314 | 39.02979 | 12520 ft | 388 kts | 202° |
| 2026-05-09 08:25 | 8.87848 | 39.01796 | 13021 ft | 393 kts | 205° |
| 2026-05-09 08:25 | 8.85396 | 39.00550 | 13499 ft | 396 kts | 206° |
| 2026-05-09 08:26 | 8.82921 | 38.99295 | 14008 ft | 399 kts | 205° |
| 2026-05-09 08:26 | 8.80423 | 38.98052 | 14413 ft | 402 kts | 205° |
| 2026-05-09 08:26 | 8.77881 | 38.96815 | 14742 ft | 408 kts | 204° |
| 2026-05-09 08:26 | 8.75305 | 38.95585 | 15078 ft | 412 kts | 203° |
| 2026-05-09 08:27 | 8.72693 | 38.94351 | 15402 ft | 415 kts | 204° |
| 2026-05-09 08:27 | 8.70092 | 38.93131 | 15746 ft | 418 kts | 204° |
| 2026-05-09 08:27 | 8.67441 | 38.91892 | 16069 ft | 421 kts | 203° |
| 2026-05-09 08:27 | 8.64779 | 38.90651 | 16427 ft | 422 kts | 204° |
| 2026-05-09 08:28 | 8.62111 | 38.89408 | 16782 ft | 424 kts | 204° |
| 2026-05-09 08:28 | 8.59421 | 38.88155 | 17135 ft | 425 kts | 204° |
| 2026-05-09 08:28 | 8.56728 | 38.86901 | 17512 ft | 427 kts | 204° |
| 2026-05-09 08:28 | 8.54028 | 38.85643 | 17895 ft | 428 kts | 204° |
| 2026-05-09 08:29 | 8.51320 | 38.84381 | 18285 ft | 428 kts | 204° |
| 2026-05-09 08:29 | 8.48611 | 38.83118 | 18624 ft | 429 kts | 204° |
| 2026-05-09 08:29 | 8.45901 | 38.81855 | 18951 ft | 429 kts | 204° |
| 2026-05-09 08:29 | 8.43187 | 38.80591 | 19285 ft | 429 kts | 204° |
| 2026-05-09 08:30 | 8.40475 | 38.79328 | 19621 ft | 429 kts | 204° |
| 2026-05-09 08:30 | 8.37768 | 38.78067 | 19963 ft | 429 kts | 204° |
| 2026-05-09 08:30 | 8.35063 | 38.76808 | 20299 ft | 429 kts | 204° |
| 2026-05-09 08:30 | 8.32354 | 38.75546 | 20611 ft | 430 kts | 204° |
| 2026-05-09 08:31 | 8.29625 | 38.74277 | 20865 ft | 432 kts | 204° |
| 2026-05-09 08:31 | 8.26920 | 38.73018 | 21093 ft | 435 kts | 204° |
| 2026-05-09 08:31 | 8.24130 | 38.71720 | 21336 ft | 437 kts | 204° |
| 2026-05-09 08:31 | 8.21401 | 38.70450 | 21587 ft | 439 kts | 204° |
| 2026-05-09 08:32 | 8.18615 | 38.69154 | 21832 ft | 440 kts | 204° |
| 2026-05-09 08:32 | 8.15827 | 38.67858 | 22070 ft | 442 kts | 204° |
| 2026-05-09 08:32 | 8.10230 | 38.65255 | 22589 ft | 444 kts | 204° |
| 2026-05-09 08:33 | 8.07414 | 38.63945 | 22842 ft | 445 kts | 204° |
| 2026-05-09 08:33 | 8.04602 | 38.62638 | 23089 ft | 446 kts | 204° |
| 2026-05-09 08:33 | 8.01785 | 38.61329 | 23345 ft | 446 kts | 204° |
| 2026-05-09 08:33 | 7.98959 | 38.60016 | 23596 ft | 447 kts | 204° |
| 2026-05-09 08:34 | 7.96139 | 38.58706 | 23815 ft | 447 kts | 204° |
| 2026-05-09 08:34 | 7.93314 | 38.57393 | 24024 ft | 448 kts | 204° |
| 2026-05-09 08:34 | 7.90477 | 38.56075 | 24241 ft | 448 kts | 204° |
| 2026-05-09 08:34 | 7.87638 | 38.54756 | 24462 ft | 449 kts | 204° |
| 2026-05-09 08:35 | 7.84796 | 38.53436 | 24679 ft | 449 kts | 204° |
| 2026-05-09 08:35 | 7.81956 | 38.52118 | 24895 ft | 449 kts | 204° |
| 2026-05-09 08:35 | 7.79119 | 38.50801 | 25114 ft | 450 kts | 204° |
| 2026-05-09 08:35 | 7.76271 | 38.49479 | 25343 ft | 450 kts | 204° |
| 2026-05-09 08:36 | 7.73425 | 38.48158 | 25567 ft | 450 kts | 204° |
| 2026-05-09 08:36 | 7.70580 | 38.46838 | 25793 ft | 451 kts | 204° |
| 2026-05-09 08:36 | 7.67760 | 38.45530 | 26016 ft | 451 kts | 204° |
| 2026-05-09 08:36 | 7.64911 | 38.44208 | 26250 ft | 451 kts | 204° |
| 2026-05-09 08:37 | 7.62058 | 38.42884 | 26476 ft | 451 kts | 204° |
| 2026-05-09 08:37 | 7.59202 | 38.41560 | 26715 ft | 451 kts | 204° |
| 2026-05-09 08:37 | 7.56355 | 38.40239 | 26952 ft | 451 kts | 204° |
| 2026-05-09 08:37 | 7.53503 | 38.38917 | 27189 ft | 451 kts | 204° |
| 2026-05-09 08:38 | 7.50677 | 38.37540 | 27436 ft | 452 kts | 209° |
| 2026-05-09 08:38 | 7.48077 | 38.35768 | 27666 ft | 452 kts | 218° |
| 2026-05-09 08:38 | 7.45753 | 38.33634 | 27909 ft | 453 kts | 227° |
| 2026-05-09 08:38 | 7.43724 | 38.31199 | 28166 ft | 453 kts | 230° |
| 2026-05-09 08:39 | 7.41751 | 38.28723 | 28415 ft | 453 kts | 230° |
| 2026-05-09 08:39 | 7.39785 | 38.26242 | 28665 ft | 453 kts | 230° |
| 2026-05-09 08:39 | 7.37817 | 38.23766 | 28918 ft | 453 kts | 230° |
| 2026-05-09 08:39 | 7.35836 | 38.21291 | 29175 ft | 453 kts | 230° |
| 2026-05-09 08:40 | 7.33853 | 38.18829 | 29439 ft | 452 kts | 230° |
| 2026-05-09 08:40 | 7.31890 | 38.16400 | 29693 ft | 452 kts | 229° |
| 2026-05-09 08:40 | 7.29879 | 38.13919 | 29962 ft | 452 kts | 230° |
| 2026-05-09 08:41 | 7.25893 | 38.09008 | 30050 ft | 461 kts | 229° |
| 2026-05-09 08:41 | 7.21790 | 38.03954 | 30053 ft | 470 kts | 230° |
| 2026-05-09 08:42 | 7.17615 | 37.98809 | 30045 ft | 477 kts | 230° |
| 2026-05-09 08:42 | 7.13383 | 37.93595 | 30046 ft | 482 kts | 230° |
| 2026-05-09 08:43 | 7.09136 | 37.88363 | 30038 ft | 482 kts | 230° |
| 2026-05-09 08:43 | 7.04888 | 37.83133 | 30034 ft | 482 kts | 230° |
| 2026-05-09 08:44 | 7.00669 | 37.77939 | 30035 ft | 482 kts | 230° |
| 2026-05-09 08:44 | 6.96401 | 37.72688 | 30023 ft | 481 kts | 230° |
| 2026-05-09 08:45 | 6.92163 | 37.67474 | 30021 ft | 481 kts | 230° |
| 2026-05-09 08:45 | 6.87844 | 37.62390 | 30014 ft | 480 kts | 223° |
| 2026-05-09 08:46 | 6.82467 | 37.58474 | 30029 ft | 478 kts | 207° |
| 2026-05-09 08:46 | 6.76558 | 37.55376 | 30018 ft | 478 kts | 207° |
| 2026-05-09 08:47 | 6.70656 | 37.52287 | 30022 ft | 478 kts | 207° |
| 2026-05-09 08:47 | 6.64762 | 37.49159 | 30023 ft | 478 kts | 207° |
| 2026-05-09 08:48 | 6.58922 | 37.46036 | 30029 ft | 477 kts | 207° |
| 2026-05-09 08:48 | 6.53062 | 37.42899 | 30026 ft | 476 kts | 207° |
| 2026-05-09 08:49 | 6.47211 | 37.39769 | 30024 ft | 476 kts | 207° |
| 2026-05-09 08:49 | 6.41364 | 37.36643 | 30029 ft | 476 kts | 207° |
| 2026-05-09 08:50 | 6.35505 | 37.33512 | 30044 ft | 476 kts | 207° |
| 2026-05-09 08:50 | 6.29705 | 37.30415 | 30029 ft | 475 kts | 207° |
| 2026-05-09 08:51 | 6.23878 | 37.27303 | 30039 ft | 474 kts | 207° |
| 2026-05-09 08:51 | 6.18053 | 37.24190 | 30040 ft | 473 kts | 207° |
| 2026-05-09 08:52 | 6.12230 | 37.21081 | 30024 ft | 475 kts | 207° |
| 2026-05-09 08:52 | 6.06383 | 37.17961 | 30038 ft | 476 kts | 207° |
| 2026-05-09 08:53 | 6.00516 | 37.14830 | 30032 ft | 478 kts | 207° |
| 2026-05-09 08:53 | 5.94639 | 37.11695 | 30022 ft | 479 kts | 207° |
| 2026-05-09 08:54 | 5.88789 | 37.08575 | 30022 ft | 479 kts | 207° |
| 2026-05-09 08:54 | 5.82885 | 37.05427 | 30017 ft | 479 kts | 207° |
| 2026-05-09 08:55 | 5.76996 | 37.02288 | 30013 ft | 479 kts | 207° |
| 2026-05-09 08:55 | 5.71109 | 36.99150 | 30002 ft | 479 kts | 207° |
| 2026-05-09 08:56 | 5.65215 | 36.96009 | 30001 ft | 479 kts | 207° |
| 2026-05-09 08:56 | 5.59325 | 36.92872 | 29990 ft | 478 kts | 207° |
| 2026-05-09 08:57 | 5.53453 | 36.89745 | 29986 ft | 478 kts | 207° |
| 2026-05-09 08:57 | 5.47580 | 36.86618 | 29976 ft | 478 kts | 207° |
| 2026-05-09 08:58 | 5.41704 | 36.83489 | 29980 ft | 477 kts | 207° |
| 2026-05-09 08:58 | 5.35842 | 36.80369 | 29973 ft | 477 kts | 207° |
| 2026-05-09 08:59 | 5.29969 | 36.77245 | 29972 ft | 477 kts | 207° |
| 2026-05-09 08:59 | 5.24146 | 36.74146 | 29974 ft | 477 kts | 207° |
| 2026-05-09 09:00 | 5.18264 | 36.71018 | 29972 ft | 478 kts | 207° |
| 2026-05-09 09:00 | 5.12395 | 36.67897 | 29969 ft | 477 kts | 207° |
| 2026-05-09 09:01 | 5.06528 | 36.64778 | 29972 ft | 477 kts | 207° |
| 2026-05-09 09:01 | 5.00663 | 36.61661 | 29967 ft | 477 kts | 207° |
| 2026-05-09 09:01 | 4.97737 | 36.60105 | 30160 ft | 473 kts | 207° |
| 2026-05-09 09:02 | 4.94834 | 36.58562 | 30380 ft | 471 kts | 207° |
| 2026-05-09 09:02 | 4.91942 | 36.57026 | 30603 ft | 469 kts | 207° |
| 2026-05-09 09:02 | 4.89064 | 36.55496 | 30809 ft | 468 kts | 207° |
| 2026-05-09 09:02 | 4.86192 | 36.53971 | 31038 ft | 466 kts | 207° |
| 2026-05-09 09:03 | 4.83373 | 36.52473 | 31267 ft | 464 kts | 208° |
| 2026-05-09 09:03 | 4.80487 | 36.50940 | 31498 ft | 463 kts | 208° |
| 2026-05-09 09:03 | 4.77648 | 36.49432 | 31728 ft | 461 kts | 208° |
| 2026-05-09 09:03 | 4.74854 | 36.47949 | 31956 ft | 460 kts | 208° |
| 2026-05-09 09:04 | 4.72028 | 36.46448 | 32181 ft | 459 kts | 208° |
| 2026-05-09 09:04 | 4.69206 | 36.44950 | 32429 ft | 458 kts | 208° |
| 2026-05-09 09:04 | 4.66395 | 36.43458 | 32668 ft | 456 kts | 208° |
| 2026-05-09 09:04 | 4.63600 | 36.41974 | 32899 ft | 455 kts | 208° |
| 2026-05-09 09:05 | 4.60804 | 36.40490 | 33148 ft | 454 kts | 208° |
| 2026-05-09 09:05 | 4.58021 | 36.39013 | 33392 ft | 453 kts | 208° |
| 2026-05-09 09:05 | 4.55238 | 36.37537 | 33634 ft | 451 kts | 208° |
| 2026-05-09 09:05 | 4.52464 | 36.36064 | 33884 ft | 450 kts | 208° |
| 2026-05-09 09:06 | 4.49691 | 36.34593 | 33898 ft | 453 kts | 208° |
| 2026-05-09 09:06 | 4.44100 | 36.31625 | 33932 ft | 457 kts | 208° |
| 2026-05-09 09:07 | 4.39400 | 36.29132 | 33925 ft | 461 kts | 208° |
| 2026-05-09 09:07 | 4.33722 | 36.26120 | 33930 ft | 462 kts | 208° |
| 2026-05-09 09:08 | 4.28017 | 36.23095 | 33928 ft | 465 kts | 208° |
| 2026-05-09 09:08 | 4.21332 | 36.19550 | 33915 ft | 468 kts | 208° |
| 2026-05-09 09:09 | 4.16499 | 36.16988 | 33923 ft | 469 kts | 208° |
| 2026-05-09 09:09 | 4.10762 | 36.13946 | 33923 ft | 470 kts | 208° |
| 2026-05-09 09:10 | 4.04979 | 36.10881 | 33912 ft | 470 kts | 208° |
| 2026-05-09 09:10 | 3.99206 | 36.07823 | 33917 ft | 469 kts | 208° |
| 2026-05-09 09:11 | 3.93434 | 36.04782 | 33922 ft | 468 kts | 208° |
| 2026-05-09 09:11 | 3.87676 | 36.01753 | 33914 ft | 467 kts | 208° |
| 2026-05-09 09:12 | 3.81955 | 35.98742 | 33915 ft | 467 kts | 208° |
| 2026-05-09 09:12 | 3.76204 | 35.95714 | 33922 ft | 466 kts | 208° |
| 2026-05-09 09:13 | 3.70466 | 35.92693 | 33917 ft | 466 kts | 208° |
| 2026-05-09 09:13 | 3.64725 | 35.89670 | 33913 ft | 466 kts | 208° |
| 2026-05-09 09:14 | 3.58983 | 35.86648 | 33922 ft | 466 kts | 208° |
| 2026-05-09 09:14 | 3.53237 | 35.83624 | 33917 ft | 466 kts | 208° |
| 2026-05-09 09:15 | 3.47486 | 35.80598 | 33909 ft | 467 kts | 208° |
| 2026-05-09 09:15 | 3.41746 | 35.77578 | 33916 ft | 466 kts | 208° |
| 2026-05-09 09:16 | 3.36029 | 35.74570 | 33919 ft | 467 kts | 208° |
| 2026-05-09 09:16 | 3.27382 | 35.70022 | 33927 ft | 468 kts | 208° |
| 2026-05-09 09:17 | 3.21602 | 35.66982 | 33920 ft | 470 kts | 208° |
| 2026-05-09 09:17 | 3.15817 | 35.63939 | 33916 ft | 470 kts | 208° |
| 2026-05-09 09:18 | 3.10157 | 35.60651 | 33910 ft | 470 kts | 217° |
| 2026-05-09 09:18 | 3.05366 | 35.56205 | 33913 ft | 470 kts | 224° |
| 2026-05-09 09:19 | 3.00700 | 35.51590 | 33913 ft | 471 kts | 224° |
| 2026-05-09 09:19 | 2.96023 | 35.47015 | 33918 ft | 470 kts | 224° |
| 2026-05-09 09:20 | 2.91350 | 35.42487 | 33921 ft | 470 kts | 224° |
| 2026-05-09 09:20 | 2.86651 | 35.37948 | 33925 ft | 469 kts | 224° |
| 2026-05-09 09:21 | 2.81955 | 35.33410 | 33930 ft | 469 kts | 224° |
| 2026-05-09 09:21 | 2.77260 | 35.28872 | 33930 ft | 469 kts | 224° |
| 2026-05-09 09:22 | 2.72571 | 35.24339 | 33938 ft | 469 kts | 224° |
| 2026-05-09 09:22 | 2.67882 | 35.19807 | 33941 ft | 468 kts | 224° |
| 2026-05-09 09:23 | 2.63197 | 35.15279 | 33938 ft | 468 kts | 224° |
| 2026-05-09 09:23 | 2.58520 | 35.10759 | 33951 ft | 467 kts | 224° |
| 2026-05-09 09:24 | 2.53841 | 35.06238 | 33953 ft | 467 kts | 224° |
| 2026-05-09 09:24 | 2.49200 | 35.01753 | 33969 ft | 467 kts | 224° |
| 2026-05-09 09:25 | 2.44542 | 34.97227 | 33971 ft | 467 kts | 226° |
| 2026-05-09 09:25 | 2.40244 | 34.92353 | 33978 ft | 466 kts | 230° |
| 2026-05-09 09:26 | 2.36072 | 34.87396 | 33982 ft | 466 kts | 230° |
| 2026-05-09 09:26 | 2.31880 | 34.82448 | 33984 ft | 465 kts | 230° |
| 2026-05-09 09:27 | 2.27676 | 34.77532 | 33973 ft | 465 kts | 229° |
| 2026-05-09 09:27 | 2.23464 | 34.72623 | 33967 ft | 465 kts | 229° |
| 2026-05-09 09:28 | 2.19246 | 34.67709 | 33980 ft | 466 kts | 229° |
| 2026-05-09 09:28 | 2.15013 | 34.62775 | 33970 ft | 468 kts | 229° |
| 2026-05-09 09:29 | 2.10795 | 34.57859 | 33967 ft | 470 kts | 229° |
| 2026-05-09 09:29 | 2.06525 | 34.52882 | 33641 ft | 476 kts | 229° |
| 2026-05-09 09:30 | 2.04369 | 34.50370 | 33121 ft | 477 kts | 229° |
| 2026-05-09 09:30 | 2.02215 | 34.47859 | 32625 ft | 474 kts | 229° |
| 2026-05-09 09:30 | 2.00075 | 34.45364 | 32144 ft | 474 kts | 229° |
| 2026-05-09 09:30 | 1.97895 | 34.42825 | 31676 ft | 477 kts | 229° |
| 2026-05-09 09:31 | 1.95729 | 34.40301 | 31204 ft | 479 kts | 228° |
| 2026-05-09 09:31 | 1.93585 | 34.37803 | 30769 ft | 481 kts | 228° |
| 2026-05-09 09:31 | 1.91403 | 34.35260 | 30305 ft | 482 kts | 228° |
| 2026-05-09 09:32 | 1.87019 | 34.30151 | 29301 ft | 485 kts | 228° |
| 2026-05-09 09:32 | 1.84817 | 34.27585 | 28792 ft | 486 kts | 228° |
| 2026-05-09 09:32 | 1.82612 | 34.25023 | 28289 ft | 487 kts | 227° |
| 2026-05-09 09:32 | 1.80321 | 34.22525 | 27793 ft | 487 kts | 225° |
| 2026-05-09 09:33 | 1.77963 | 34.20094 | 27312 ft | 487 kts | 224° |
| 2026-05-09 09:33 | 1.75572 | 34.17689 | 26830 ft | 487 kts | 224° |
| 2026-05-09 09:33 | 1.73179 | 34.15295 | 26361 ft | 488 kts | 224° |
| 2026-05-09 09:33 | 1.70782 | 34.12887 | 25897 ft | 488 kts | 224° |
| 2026-05-09 09:34 | 1.68392 | 34.10473 | 25439 ft | 488 kts | 225° |
| 2026-05-09 09:34 | 1.66010 | 34.08052 | 24988 ft | 488 kts | 225° |
| 2026-05-09 09:34 | 1.63634 | 34.05628 | 24548 ft | 487 kts | 225° |
| 2026-05-09 09:36 | 1.47652 | 33.89286 | 21208 ft | 459 kts | 225° |
| 2026-05-09 09:36 | 1.45415 | 33.86999 | 21031 ft | 458 kts | 225° |
| 2026-05-09 09:36 | 1.43188 | 33.84725 | 20979 ft | 457 kts | 225° |
| 2026-05-09 09:37 | 1.40968 | 33.82456 | 20960 ft | 455 kts | 225° |
| 2026-05-09 09:37 | 1.38744 | 33.80184 | 20965 ft | 456 kts | 225° |
| 2026-05-09 09:37 | 1.36525 | 33.77916 | 20961 ft | 457 kts | 225° |
| 2026-05-09 09:37 | 1.34300 | 33.75644 | 20957 ft | 457 kts | 225° |
| 2026-05-09 09:38 | 1.32083 | 33.73379 | 20963 ft | 457 kts | 225° |
| 2026-05-09 09:38 | 1.29858 | 33.71105 | 20961 ft | 457 kts | 225° |
| 2026-05-09 09:38 | 1.27630 | 33.68829 | 20968 ft | 457 kts | 225° |
| 2026-05-09 09:38 | 1.25411 | 33.66562 | 20959 ft | 457 kts | 225° |
| 2026-05-09 09:39 | 1.23181 | 33.64284 | 20958 ft | 457 kts | 225° |
| 2026-05-09 09:39 | 1.20958 | 33.62012 | 20962 ft | 457 kts | 225° |
| 2026-05-09 09:39 | 1.18734 | 33.59741 | 20960 ft | 457 kts | 225° |
| 2026-05-09 09:39 | 1.16510 | 33.57469 | 20962 ft | 457 kts | 225° |
| 2026-05-09 09:40 | 1.14281 | 33.55192 | 20958 ft | 457 kts | 225° |
| 2026-05-09 09:40 | 1.12060 | 33.52923 | 20954 ft | 457 kts | 225° |
| 2026-05-09 09:40 | 1.09836 | 33.50651 | 20953 ft | 457 kts | 225° |
| 2026-05-09 09:40 | 1.07614 | 33.48382 | 20952 ft | 457 kts | 225° |
| 2026-05-09 09:41 | 1.05387 | 33.46108 | 20965 ft | 457 kts | 225° |
| 2026-05-09 09:41 | 1.03194 | 33.43868 | 20959 ft | 457 kts | 225° |
| 2026-05-09 09:41 | 1.00971 | 33.41597 | 20957 ft | 457 kts | 225° |
| 2026-05-09 09:41 | 0.98747 | 33.39324 | 20961 ft | 457 kts | 225° |
| 2026-05-09 09:42 | 0.96528 | 33.37058 | 20977 ft | 457 kts | 225° |
| 2026-05-09 09:42 | 0.94301 | 33.34784 | 20969 ft | 457 kts | 225° |
| 2026-05-09 09:42 | 0.92074 | 33.32509 | 20971 ft | 457 kts | 225° |
| 2026-05-09 09:42 | 0.89848 | 33.30235 | 20974 ft | 458 kts | 225° |
| 2026-05-09 09:43 | 0.87621 | 33.27960 | 20967 ft | 458 kts | 225° |
| 2026-05-09 09:43 | 0.85393 | 33.25684 | 20987 ft | 458 kts | 225° |
| 2026-05-09 09:43 | 0.83162 | 33.23405 | 20985 ft | 459 kts | 225° |
| 2026-05-09 09:43 | 0.81194 | 33.20913 | 20968 ft | 460 kts | 241° |
| 2026-05-09 09:44 | 0.80041 | 33.17936 | 21000 ft | 460 kts | 254° |
| 2026-05-09 09:44 | 0.79207 | 33.14845 | 21007 ft | 460 kts | 255° |
| 2026-05-09 09:44 | 0.78381 | 33.11752 | 21000 ft | 461 kts | 254° |
| 2026-05-09 09:44 | 0.77529 | 33.08663 | 20998 ft | 461 kts | 253° |
| 2026-05-09 09:45 | 0.76652 | 33.05581 | 20994 ft | 461 kts | 253° |
| 2026-05-09 09:45 | 0.75765 | 33.02505 | 21019 ft | 461 kts | 253° |
| 2026-05-09 09:45 | 0.74741 | 32.99473 | 21002 ft | 460 kts | 243° |
| 2026-05-09 09:45 | 0.73015 | 32.96799 | 21041 ft | 458 kts | 233° |
| 2026-05-09 09:46 | 0.71144 | 32.94220 | 21036 ft | 459 kts | 233° |
| 2026-05-09 09:46 | 0.69290 | 32.91622 | 21033 ft | 459 kts | 234° |
| 2026-05-09 09:46 | 0.67456 | 32.89008 | 21029 ft | 459 kts | 234° |
| 2026-05-09 09:46 | 0.65638 | 32.86387 | 21029 ft | 459 kts | 234° |
| 2026-05-09 09:47 | 0.63825 | 32.83756 | 21032 ft | 459 kts | 235° |
| 2026-05-09 09:47 | 0.62037 | 32.81159 | 21046 ft | 459 kts | 235° |
| 2026-05-09 09:47 | 0.60228 | 32.78530 | 21045 ft | 459 kts | 234° |
| 2026-05-09 09:47 | 0.58416 | 32.75898 | 21044 ft | 459 kts | 234° |
| 2026-05-09 09:48 | 0.56604 | 32.73270 | 21052 ft | 459 kts | 235° |
| 2026-05-09 09:48 | 0.54792 | 32.70642 | 21052 ft | 459 kts | 234° |
| 2026-05-09 09:48 | 0.52976 | 32.68011 | 21047 ft | 459 kts | 234° |
| 2026-05-09 09:48 | 0.51161 | 32.65379 | 21064 ft | 459 kts | 234° |
| 2026-05-09 09:49 | 0.49349 | 32.62753 | 21068 ft | 459 kts | 234° |
| 2026-05-09 09:49 | 0.47537 | 32.60126 | 21064 ft | 459 kts | 234° |
| 2026-05-09 09:49 | 0.45723 | 32.57496 | 21064 ft | 459 kts | 234° |
| 2026-05-09 09:49 | 0.43916 | 32.54873 | 21070 ft | 459 kts | 234° |
| 2026-05-09 09:50 | 0.42105 | 32.52246 | 21068 ft | 459 kts | 234° |
| 2026-05-09 09:50 | 0.40313 | 32.49647 | 21073 ft | 459 kts | 234° |
| 2026-05-09 09:50 | 0.38499 | 32.47017 | 21084 ft | 459 kts | 234° |
| 2026-05-09 09:50 | 0.36668 | 32.44413 | 21081 ft | 459 kts | 231° |
| 2026-05-09 09:51 | 0.34324 | 32.42279 | 21086 ft | 456 kts | 211° |
| 2026-05-09 09:51 | 0.31433 | 32.41001 | 21099 ft | 455 kts | 195° |
| 2026-05-09 09:51 | 0.28321 | 32.40477 | 21084 ft | 455 kts | 180° |
| 2026-05-09 09:51 | 0.25188 | 32.40850 | 21104 ft | 454 kts | 164° |
| 2026-05-09 09:52 | 0.23232 | 32.41578 | 21019 ft | 453 kts | 154° |
| 2026-05-09 09:52 | 0.20607 | 32.43315 | 20258 ft | 454 kts | 136° |
| 2026-05-09 09:52 | 0.18140 | 32.46686 | 19359 ft | 450 kts | 115° |
| 2026-05-09 09:52 | 0.17434 | 32.48634 | 18916 ft | 450 kts | 104° |
| 2026-05-09 09:53 | 0.17072 | 32.51722 | 18232 ft | 447 kts | 88° |
| 2026-05-09 09:53 | 0.17576 | 32.54771 | 17477 ft | 445 kts | 73° |
| 2026-05-09 09:53 | 0.18817 | 32.57583 | 16739 ft | 442 kts | 58° |
| 2026-05-09 09:53 | 0.20724 | 32.59942 | 16013 ft | 430 kts | 46° |
| 2026-05-09 09:54 | 0.22798 | 32.62035 | 15291 ft | 418 kts | 45° |
| 2026-05-09 09:54 | 0.24834 | 32.64052 | 14600 ft | 407 kts | 45° |
| 2026-05-09 09:54 | 0.26824 | 32.66023 | 13913 ft | 398 kts | 46° |
| 2026-05-09 09:54 | 0.28765 | 32.67958 | 13156 ft | 390 kts | 46° |
| 2026-05-09 09:55 | 0.30656 | 32.69859 | 12408 ft | 383 kts | 46° |
| 2026-05-09 09:55 | 0.32514 | 32.71738 | 11678 ft | 376 kts | 46° |
| 2026-05-09 09:55 | 0.34446 | 32.73476 | 10943 ft | 371 kts | 36° |
| 2026-05-09 09:55 | 0.36600 | 32.74877 | 10156 ft | 369 kts | 32° |
| 2026-05-09 09:56 | 0.38775 | 32.76226 | 9409 ft | 365 kts | 33° |
| 2026-05-09 09:56 | 0.40843 | 32.77546 | 9170 ft | 346 kts | 33° |
| 2026-05-09 09:56 | 0.42827 | 32.78837 | 9019 ft | 326 kts | 34° |
| 2026-05-09 09:56 | 0.44659 | 32.80038 | 8919 ft | 308 kts | 34° |
| 2026-05-09 09:57 | 0.46408 | 32.81186 | 8906 ft | 295 kts | 34° |
| 2026-05-09 09:57 | 0.48090 | 32.82292 | 8901 ft | 293 kts | 34° |
| 2026-05-09 09:57 | 0.49797 | 32.83415 | 8920 ft | 295 kts | 34° |
| 2026-05-09 09:57 | 0.51514 | 32.84544 | 8901 ft | 297 kts | 34° |
| 2026-05-09 09:58 | 0.53248 | 32.85683 | 8902 ft | 297 kts | 34° |
| 2026-05-09 09:58 | 0.54975 | 32.86817 | 8900 ft | 297 kts | 34° |
| 2026-05-09 09:58 | 0.56833 | 32.87709 | 8889 ft | 300 kts | 12° |
| 2026-05-09 09:58 | 0.58898 | 32.87690 | 8884 ft | 298 kts | 345° |
| 2026-05-09 09:59 | 0.60723 | 32.86767 | 8890 ft | 295 kts | 318° |
| 2026-05-09 09:59 | 0.61967 | 32.85168 | 8883 ft | 292 kts | 293° |
| 2026-05-09 09:59 | 0.62410 | 32.83207 | 8912 ft | 289 kts | 268° |
| 2026-05-09 09:59 | 0.62024 | 32.81251 | 8912 ft | 288 kts | 245° |
| 2026-05-09 10:00 | 0.61017 | 32.79529 | 8915 ft | 288 kts | 234° |
| 2026-05-09 10:00 | 0.59875 | 32.77905 | 8749 ft | 293 kts | 234° |
| 2026-05-09 10:00 | 0.58659 | 32.76198 | 7972 ft | 307 kts | 234° |
| 2026-05-09 10:00 | 0.57419 | 32.74437 | 7274 ft | 311 kts | 234° |
| 2026-05-09 10:01 | 0.56196 | 32.72677 | 6909 ft | 303 kts | 235° |
| 2026-05-09 10:01 | 0.55032 | 32.70991 | 6766 ft | 287 kts | 235° |
| 2026-05-09 10:01 | 0.53926 | 32.69389 | 6610 ft | 273 kts | 235° |
| 2026-05-09 10:01 | 0.52881 | 32.67873 | 6566 ft | 255 kts | 235° |
| 2026-05-09 10:02 | 0.51907 | 32.66461 | 6522 ft | 240 kts | 235° |
| 2026-05-09 10:02 | 0.50988 | 32.65128 | 6522 ft | 225 kts | 235° |
| 2026-05-09 10:02 | 0.50117 | 32.63865 | 6531 ft | 220 kts | 235° |
| 2026-05-09 10:02 | 0.49246 | 32.62603 | 6523 ft | 219 kts | 235° |
| 2026-05-09 10:03 | 0.48385 | 32.61354 | 6519 ft | 217 kts | 234° |
| 2026-05-09 10:03 | 0.47532 | 32.60118 | 6511 ft | 215 kts | 235° |
| 2026-05-09 10:03 | 0.46684 | 32.58888 | 6511 ft | 216 kts | 234° |
| 2026-05-09 10:03 | 0.45821 | 32.57637 | 5991 ft | 229 kts | 234° |
| 2026-05-09 10:04 | 0.44927 | 32.56341 | 5781 ft | 222 kts | 235° |
| 2026-05-09 10:04 | 0.44064 | 32.55089 | 5650 ft | 218 kts | 235° |
| 2026-05-09 10:04 | 0.43210 | 32.53851 | 5559 ft | 217 kts | 235° |
| 2026-05-09 10:04 | 0.42357 | 32.52613 | 5525 ft | 215 kts | 235° |
| 2026-05-09 10:05 | 0.41510 | 32.51385 | 5534 ft | 215 kts | 234° |
| 2026-05-09 10:05 | 0.40661 | 32.50154 | 5524 ft | 215 kts | 235° |
| 2026-05-09 10:05 | 0.39816 | 32.48927 | 5522 ft | 215 kts | 235° |
| 2026-05-09 10:05 | 0.38969 | 32.47700 | 5528 ft | 214 kts | 234° |
| 2026-05-09 10:06 | 0.38125 | 32.46475 | 5536 ft | 214 kts | 234° |
| 2026-05-09 10:06 | 0.37282 | 32.45252 | 5541 ft | 214 kts | 235° |
| 2026-05-09 10:06 | 0.36437 | 32.44028 | 5543 ft | 215 kts | 235° |
| 2026-05-09 10:06 | 0.35589 | 32.42798 | 5543 ft | 215 kts | 235° |
| 2026-05-09 10:07 | 0.34740 | 32.41568 | 5544 ft | 216 kts | 235° |
| 2026-05-09 10:07 | 0.33818 | 32.40414 | 5523 ft | 209 kts | 217° |
| 2026-05-09 10:07 | 0.32533 | 32.40013 | 5577 ft | 186 kts | 178° |
| 2026-05-09 10:07 | 0.31287 | 32.40096 | 5550 ft | 178 kts | 174° |
| 2026-05-09 10:08 | 0.30080 | 32.40223 | 5540 ft | 174 kts | 172° |
| 2026-05-09 10:08 | 0.28877 | 32.40373 | 5542 ft | 175 kts | 172° |
| 2026-05-09 10:08 | 0.27671 | 32.40534 | 5543 ft | 175 kts | 172° |
| 2026-05-09 10:08 | 0.26463 | 32.40700 | 5547 ft | 175 kts | 172° |
| 2026-05-09 10:09 | 0.25259 | 32.40868 | 5554 ft | 175 kts | 172° |
| 2026-05-09 10:09 | 0.24051 | 32.41037 | 5561 ft | 175 kts | 172° |
| 2026-05-09 10:09 | 0.22842 | 32.41206 | 5562 ft | 175 kts | 172° |
| 2026-05-09 10:09 | 0.21655 | 32.41372 | 5563 ft | 175 kts | 172° |
| 2026-05-09 10:10 | 0.20440 | 32.41542 | 5573 ft | 176 kts | 172° |
| 2026-05-09 10:10 | 0.19219 | 32.41713 | 5573 ft | 177 kts | 172° |
| 2026-05-09 10:10 | 0.18003 | 32.41882 | 5560 ft | 176 kts | 172° |
| 2026-05-09 10:10 | 0.16789 | 32.42052 | 5562 ft | 175 kts | 172° |
| 2026-05-09 10:11 | 0.15583 | 32.42221 | 5554 ft | 174 kts | 172° |
| 2026-05-09 10:11 | 0.14387 | 32.42388 | 5512 ft | 174 kts | 172° |
| 2026-05-09 10:11 | 0.13180 | 32.42557 | 5276 ft | 173 kts | 172° |
| 2026-05-09 10:11 | 0.11994 | 32.42722 | 5048 ft | 169 kts | 171° |
| 2026-05-09 10:12 | 0.10866 | 32.42880 | 4846 ft | 167 kts | 171° |
| 2026-05-09 10:12 | 0.09705 | 32.43043 | 4611 ft | 170 kts | 172° |
| 2026-05-09 10:12 | 0.08547 | 32.43203 | 4439 ft | 169 kts | 173° |
| 2026-05-09 10:12 | 0.07377 | 32.43370 | 4168 ft | 167 kts | 173° |
| 2026-05-09 10:13 | 0.06245 | 32.43506 | 3971 ft | 160 kts | 171° |
| 2026-05-09 10:13 | 0.05154 | 32.43683 | 3807 ft | 157 kts | 171° |
| 2026-05-09 10:13 | 0.04157 | 32.43817 | 3774 ft | 127 kts | 172° |
| 2026-05-09 10:13 | 0.03433 | 32.43917 | 3768 ft | 83 kts | 172° |
| 2026-05-09 10:14 | 0.03014 | 32.43972 | 3772 ft | 39 kts | 173° |
| 2026-05-09 10:14 | 0.02916 | 32.44031 | 3762 ft | 0 kts | 135° |
| 2026-05-09 10:15 | 0.02911 | 32.44037 | 3767 ft | 3 kts | 136° |
| 2026-05-09 10:15 | 0.02884 | 32.44060 | 3767 ft | 7 kts | 140° |
| 2026-05-09 10:15 | 0.02835 | 32.44098 | 3759 ft | 10 kts | 139° |
| 2026-05-09 10:16 | 0.02842 | 32.44158 | 3762 ft | 10 kts | 28° |
| 2026-05-09 10:16 | 0.02912 | 32.44161 | 3771 ft | 10 kts | 353° |
| 2026-05-09 10:16 | 0.02980 | 32.44151 | 3763 ft | 10 kts | 352° |
| 2026-05-09 10:16 | 0.03046 | 32.44141 | 3765 ft | 9 kts | 352° |
| 2026-05-09 10:17 | 0.03111 | 32.44132 | 3779 ft | 9 kts | 352° |
| 2026-05-09 10:17 | 0.03174 | 32.44123 | 3769 ft | 9 kts | 352° |
| 2026-05-09 10:17 | 0.03235 | 32.44114 | 3774 ft | 9 kts | 352° |
| 2026-05-09 10:17 | 0.03294 | 32.44106 | 3772 ft | 9 kts | 352° |
| 2026-05-09 10:18 | 0.03352 | 32.44099 | 3771 ft | 8 kts | 352° |
| 2026-05-09 10:18 | 0.03415 | 32.44090 | 3772 ft | 10 kts | 352° |
| 2026-05-09 10:18 | 0.03487 | 32.44080 | 3774 ft | 11 kts | 352° |
| 2026-05-09 10:18 | 0.03564 | 32.44070 | 3770 ft | 11 kts | 352° |
| 2026-05-09 10:19 | 0.03639 | 32.44060 | 3780 ft | 11 kts | 352° |
| 2026-05-09 10:19 | 0.03723 | 32.44049 | 3771 ft | 13 kts | 352° |
| 2026-05-09 10:19 | 0.03817 | 32.44036 | 3772 ft | 14 kts | 352° |
| 2026-05-09 10:19 | 0.03914 | 32.44022 | 3773 ft | 14 kts | 352° |
| 2026-05-09 10:20 | 0.04007 | 32.44009 | 3778 ft | 14 kts | 352° |
| 2026-05-09 10:20 | 0.04116 | 32.43993 | 3775 ft | 17 kts | 352° |
| 2026-05-09 10:20 | 0.04189 | 32.44003 | 3774 ft | 10 kts | 47° |
| 2026-05-09 10:20 | 0.04211 | 32.44069 | 3782 ft | 10 kts | 82° |
| 2026-05-09 10:21 | 0.04240 | 32.44134 | 3779 ft | 11 kts | 57° |
| 2026-05-09 10:21 | 0.04254 | 32.44212 | 3779 ft | 12 kts | 84° |
| 2026-05-09 10:21 | 0.04255 | 32.44216 | 3783 ft | 0 kts | 84° |